ENAN/ANX METAR and TAF weather

Enter ICAO airport designator
Station Type Date Time Source
ENAN METAR 2022/08/12 13:50 UTC NOAA

ENAN 121350Z 26019KT 9999 SCT019 BKN026 10/07 Q1017


Station Type Date Time Source
ENAN Decoded METAR 2022/08/12 13:50 UTC NOAA

Andoya, Norway (ENAN) 69-18N 016-09E 14M
Aug 12, 2022 - 09:50 AM EDT / 2022.08.12 1350 UTC
Wind: from the W (260 degrees) at 22 MPH (19 KT):0
Visibility: greater than 7 mile(s):0
Sky conditions: mostly cloudy
Temperature: 50 F (10 C)
Dew Point: 44 F (7 C)
Relative Humidity: 81%
Pressure (altimeter): 30.03 in. Hg (1017 hPa)
ob: ENAN 121350Z 26019KT 9999 SCT019 BKN026 10/07 Q1017
cycle: 14

Station Type Date Time Source
ENAN TAF 2022/08/12 12:57 UTC NOAA

TAF TAF ENAN 121100Z 1212/1312 24020KT 9999 -SHRA FEW010 BKN025
TEMPO 1212/1216 24022G38KT PROB30
TEMPO 1212/1215 SHRA BKN014 SCT020TCU
BECMG 1220/1223 19008KT

Example: see airport list